sensor_id;sensor_type;location;lat;lon;timestamp;pressure;altitude;pressure_sealevel;temperature;humidity
76095;BME280;64821;13.710;100.604;2023-09-19T00:26:39;101114.72;;;33.59;53.98
76095;BME280;64821;13.710;100.604;2023-09-19T00:27:43;101110.34;;;33.58;53.53
76095;BME280;64821;13.710;100.604;2023-09-19T00:28:47;101111.16;;;33.59;53.83
76095;BME280;64821;13.710;100.604;2023-09-19T00:29:50;101117.94;;;33.61;53.74
76095;BME280;64821;13.710;100.604;2023-09-19T00:30:54;101113.75;;;33.64;53.56
76095;BME280;64821;13.710;100.604;2023-09-19T00:31:58;101119.41;;;33.67;53.34
76095;BME280;64821;13.710;100.604;2023-09-19T00:33:02;101119.09;;;33.69;54.16
76095;BME280;64821;13.710;100.604;2023-09-19T00:34:06;101119.88;;;33.69;53.83
76095;BME280;64821;13.710;100.604;2023-09-19T00:35:10;101119.56;;;33.71;53.81
76095;BME280;64821;13.710;100.604;2023-09-19T00:36:13;101081.91;;;33.46;53.94
76095;BME280;64821;13.710;100.604;2023-09-19T00:37:17;101122.53;;;33.74;53.56
76095;BME280;64821;13.710;100.604;2023-09-19T00:38:22;101090.94;;;33.55;53.84
76095;BME280;64821;13.710;100.604;2023-09-19T00:39:26;101129.00;;;33.78;53.62
76095;BME280;64821;13.710;100.604;2023-09-19T00:40:29;101123.66;;;33.82;53.33
76095;BME280;64821;13.710;100.604;2023-09-19T00:41:33;101126.91;;;33.84;53.66
76095;BME280;64821;13.710;100.604;2023-09-19T00:42:39;101085.47;;;33.55;54.14
76095;BME280;64821;13.710;100.604;2023-09-19T00:43:43;101121.09;;;33.77;53.81
76095;BME280;64821;13.710;100.604;2023-09-19T00:44:47;101120.09;;;33.82;53.87
76095;BME280;64821;13.710;100.604;2023-09-19T00:45:52;101133.53;;;33.92;53.21
76095;BME280;64821;13.710;100.604;2023-09-19T00:46:56;101141.47;;;33.93;53.46
76095;BME280;64821;13.710;100.604;2023-09-19T00:48:02;101127.06;;;33.88;53.49
76095;BME280;64821;13.710;100.604;2023-09-19T00:49:08;101133.03;;;33.90;53.33
76095;BME280;64821;13.710;100.604;2023-09-19T00:50:13;101134.03;;;33.94;53.70
76095;BME280;64821;13.710;100.604;2023-09-19T00:51:18;101133.84;;;33.99;53.06
76095;BME280;64821;13.710;100.604;2023-09-19T00:52:23;101131.28;;;34.02;53.29
76095;BME280;64821;13.710;100.604;2023-09-19T00:53:27;101131.44;;;34.06;53.38
76095;BME280;64821;13.710;100.604;2023-09-19T00:54:32;101139.50;;;34.11;53.57
76095;BME280;64821;13.710;100.604;2023-09-19T00:55:37;101136.13;;;34.14;53.06
76095;BME280;64821;13.710;100.604;2023-09-19T00:56:41;101138.25;;;34.17;53.09
76095;BME280;64821;13.710;100.604;2023-09-19T00:57:47;101146.13;;;34.18;53.32
76095;BME280;64821;13.710;100.604;2023-09-19T00:58:51;101141.13;;;34.21;52.90
76095;BME280;64821;13.710;100.604;2023-09-19T00:59:55;101137.06;;;34.18;53.01
76095;BME280;64821;13.710;100.604;2023-09-19T01:00:59;101124.81;;;34.07;53.01
76095;BME280;64821;13.710;100.604;2023-09-19T01:02:04;101142.44;;;34.23;52.90
76095;BME280;64821;13.710;100.604;2023-09-19T01:03:08;101137.56;;;34.20;53.09
76095;BME280;64821;13.710;100.604;2023-09-19T01:04:12;101149.56;;;34.33;52.80
76095;BME280;64821;13.710;100.604;2023-09-19T01:05:16;101142.94;;;34.34;52.97
76095;BME280;64821;13.710;100.604;2023-09-19T01:06:21;101151.69;;;34.36;52.90
76095;BME280;64821;13.710;100.604;2023-09-19T01:07:25;101145.06;;;34.37;52.75
76095;BME280;64821;13.710;100.604;2023-09-19T01:08:29;101158.00;;;34.36;52.81
76095;BME280;64821;13.710;100.604;2023-09-19T01:09:32;101152.13;;;34.38;52.64
76095;BME280;64821;13.710;100.604;2023-09-19T01:10:37;101154.25;;;34.41;53.14
76095;BME280;64821;13.710;100.604;2023-09-19T01:11:47;101111.69;;;34.12;53.08
76095;BME280;64821;13.710;100.604;2023-09-19T01:12:58;101147.13;;;34.40;52.80
76095;BME280;64821;13.710;100.604;2023-09-19T01:14:12;101152.63;;;34.48;52.84
76095;BME280;64821;13.710;100.604;2023-09-19T01:15:28;101164.91;;;34.51;52.56
76095;BME280;64821;13.710;100.604;2023-09-19T01:16:41;101165.09;;;34.55;53.16
76095;BME280;64821;13.710;100.604;2023-09-19T01:17:55;101163.28;;;34.59;52.92
76095;BME280;64821;13.710;100.604;2023-09-19T01:19:12;101153.75;;;34.65;52.93
76095;BME280;64821;13.710;100.604;2023-09-19T01:20:30;101157.31;;;34.65;52.20
76095;BME280;64821;13.710;100.604;2023-09-19T01:21:44;101166.81;;;34.68;51.74
76095;BME280;64821;13.710;100.604;2023-09-19T01:23:10;101168.81;;;34.76;52.19
76095;BME280;64821;13.710;100.604;2023-09-19T01:24:54;101162.63;;;34.79;51.92
76095;BME280;64821;13.710;100.604;2023-09-19T01:26:07;101133.34;;;34.66;51.84
76095;BME280;64821;13.710;100.604;2023-09-19T01:27:32;101113.63;;;34.55;51.94
76095;BME280;64821;13.710;100.604;2023-09-19T01:28:52;101163.09;;;34.89;51.28
76095;BME280;64821;13.710;100.604;2023-09-19T01:30:09;101162.28;;;34.89;51.52
76095;BME280;64821;13.710;100.604;2023-09-19T01:31:14;101144.97;;;34.80;51.86
76095;BME280;64821;13.710;100.604;2023-09-19T01:32:19;101149.84;;;34.83;51.63
76095;BME280;64821;13.710;100.604;2023-09-19T01:33:25;101148.22;;;34.82;51.84
76095;BME280;64821;13.710;100.604;2023-09-19T01:34:43;101158.69;;;34.97;50.38
76095;BME280;64821;13.710;100.604;2023-09-19T01:35:47;101160.50;;;34.93;51.54
76095;BME280;64821;13.710;100.604;2023-09-19T01:36:51;101154.34;;;34.96;51.84
76095;BME280;64821;13.710;100.604;2023-09-19T01:37:55;101126.34;;;34.77;51.51
76095;BME280;64821;13.710;100.604;2023-09-19T01:38:59;101171.47;;;35.02;51.36
76095;BME280;64821;13.710;100.604;2023-09-19T01:40:06;101136.22;;;34.86;51.10
76095;BME280;64821;13.710;100.604;2023-09-19T01:41:26;101169.81;;;35.09;49.76
76095;BME280;64821;13.710;100.604;2023-09-19T01:42:37;101163.84;;;34.99;50.78
76095;BME280;64821;13.710;100.604;2023-09-19T01:43:43;101159.19;;;34.91;51.19
76095;BME280;64821;13.710;100.604;2023-09-19T01:44:57;101167.91;;;35.01;51.08
76095;BME280;64821;13.710;100.604;2023-09-19T01:46:08;101148.34;;;34.94;50.69
76095;BME280;64821;13.710;100.604;2023-09-19T01:47:19;101173.56;;;35.05;50.70
76095;BME280;64821;13.710;100.604;2023-09-19T01:48:29;101177.44;;;35.12;50.80
76095;BME280;64821;13.710;100.604;2023-09-19T01:49:44;101171.59;;;35.14;50.75
76095;BME280;64821;13.710;100.604;2023-09-19T01:50:55;101176.41;;;35.17;50.91
76095;BME280;64821;13.710;100.604;2023-09-19T01:52:10;101170.91;;;35.17;50.56
76095;BME280;64821;13.710;100.604;2023-09-19T01:53:19;101174.47;;;35.17;50.89
76095;BME280;64821;13.710;100.604;2023-09-19T01:54:33;101177.09;;;35.14;49.91
76095;BME280;64821;13.710;100.604;2023-09-19T01:55:41;101172.25;;;35.11;50.84
76095;BME280;64821;13.710;100.604;2023-09-19T01:56:50;101176.13;;;35.10;50.42
76095;BME280;64821;13.710;100.604;2023-09-19T01:58:04;101177.59;;;35.16;50.87
76095;BME280;64821;13.710;100.604;2023-09-19T01:59:13;101174.84;;;35.16;50.34
76095;BME280;64821;13.710;100.604;2023-09-19T02:00:18;101172.53;;;35.18;50.96
76095;BME280;64821;13.710;100.604;2023-09-19T02:01:27;101141.69;;;34.95;50.04
76095;BME280;64821;13.710;100.604;2023-09-19T02:02:32;101179.53;;;35.15;51.15
76095;BME280;64821;13.710;100.604;2023-09-19T02:03:37;101184.34;;;35.18;50.58
76095;BME280;64821;13.710;100.604;2023-09-19T02:04:42;101181.28;;;35.20;50.66
76095;BME280;64821;13.710;100.604;2023-09-19T02:05:49;101176.78;;;35.24;50.33
76095;BME280;64821;13.710;100.604;2023-09-19T02:06:53;101187.91;;;35.28;50.74
76095;BME280;64821;13.710;100.604;2023-09-19T02:07:57;101186.44;;;35.30;50.33
76095;BME280;64821;13.710;100.604;2023-09-19T02:09:01;101183.16;;;35.37;50.70
76095;BME280;64821;13.710;100.604;2023-09-19T02:10:06;101100.09;;;34.88;50.51
76095;BME280;64821;13.710;100.604;2023-09-19T02:11:10;101185.75;;;35.42;50.47
76095;BME280;64821;13.710;100.604;2023-09-19T02:12:14;101180.72;;;35.44;50.57
76095;BME280;64821;13.710;100.604;2023-09-19T02:13:18;101189.59;;;35.49;49.68
76095;BME280;64821;13.710;100.604;2023-09-19T02:14:23;101190.88;;;35.52;50.14
76095;BME280;64821;13.710;100.604;2023-09-19T02:15:27;101191.69;;;35.52;49.86
76095;BME280;64821;13.710;100.604;2023-09-19T02:16:32;101168.41;;;35.41;49.86
76095;BME280;64821;13.710;100.604;2023-09-19T02:17:36;101151.78;;;35.29;49.91
76095;BME280;64821;13.710;100.604;2023-09-19T02:18:40;101166.94;;;35.44;50.00
76095;BME280;64821;13.710;100.604;2023-09-19T02:19:44;101188.41;;;35.59;49.95
76095;BME280;64821;13.710;100.604;2023-09-19T02:20:48;101192.13;;;35.63;49.82
76095;BME280;64821;13.710;100.604;2023-09-19T02:21:51;101188.56;;;35.63;49.44
76095;BME280;64821;13.710;100.604;2023-09-19T02:22:55;101183.19;;;35.66;49.79
76095;BME280;64821;13.710;100.604;2023-09-19T02:23:59;101189.66;;;35.70;49.87
76095;BME280;64821;13.710;100.604;2023-09-19T02:25:03;101165.88;;;35.57;49.59
76095;BME280;64821;13.710;100.604;2023-09-19T02:26:10;101164.69;;;35.67;48.38
76095;BME280;64821;13.710;100.604;2023-09-19T02:27:14;101181.56;;;35.74;49.41
76095;BME280;64821;13.710;100.604;2023-09-19T02:28:17;101174.09;;;35.74;49.26
76095;BME280;64821;13.710;100.604;2023-09-19T02:29:21;101175.25;;;35.73;49.48
76095;BME280;64821;13.710;100.604;2023-09-19T02:30:25;101160.19;;;35.62;49.59
76095;BME280;64821;13.710;100.604;2023-09-19T02:31:29;101166.47;;;35.71;49.37
76095;BME280;64821;13.710;100.604;2023-09-19T02:32:34;101150.47;;;35.65;48.94
76095;BME280;64821;13.710;100.604;2023-09-19T02:33:38;101177.13;;;35.81;49.43
76095;BME280;64821;13.710;100.604;2023-09-19T02:34:43;101174.53;;;35.76;49.50
76095;BME280;64821;13.710;100.604;2023-09-19T02:35:48;101168.22;;;35.76;49.26
76095;BME280;64821;13.710;100.604;2023-09-19T02:36:51;101177.59;;;35.83;49.42
76095;BME280;64821;13.710;100.604;2023-09-19T02:37:55;101177.25;;;35.85;49.13
76095;BME280;64821;13.710;100.604;2023-09-19T02:38:59;101178.53;;;35.87;49.07
76095;BME280;64821;13.710;100.604;2023-09-19T02:40:04;101177.53;;;35.92;48.98
76095;BME280;64821;13.710;100.604;2023-09-19T02:41:08;101184.31;;;35.94;48.93
76095;BME280;64821;13.710;100.604;2023-09-19T02:42:11;101170.06;;;35.92;49.01
76095;BME280;64821;13.710;100.604;2023-09-19T02:43:15;101174.91;;;35.95;49.06
76095;BME280;64821;13.710;100.604;2023-09-19T02:44:19;101177.81;;;35.99;48.75
76095;BME280;64821;13.710;100.604;2023-09-19T02:45:23;101166.63;;;35.95;48.89
76095;BME280;64821;13.710;100.604;2023-09-19T02:46:27;101177.31;;;35.97;48.84
76095;BME280;64821;13.710;100.604;2023-09-19T02:47:31;101178.13;;;35.97;48.97
76095;BME280;64821;13.710;100.604;2023-09-19T02:48:37;101161.00;;;35.92;48.38
76095;BME280;64821;13.710;100.604;2023-09-19T02:49:40;101173.44;;;35.98;48.41
76095;BME280;64821;13.710;100.604;2023-09-19T02:50:44;101175.53;;;36.01;48.55
76095;BME280;64821;13.710;100.604;2023-09-19T02:51:48;101163.75;;;35.92;48.54
76095;BME280;64821;13.710;100.604;2023-09-19T02:52:52;101100.22;;;35.59;48.79
76095;BME280;64821;13.710;100.604;2023-09-19T02:53:56;101175.84;;;36.00;48.67
76095;BME280;64821;13.710;100.604;2023-09-19T02:55:00;101172.84;;;35.92;48.62
76095;BME280;64821;13.710;100.604;2023-09-19T02:56:04;101167.75;;;35.94;48.70
76095;BME280;64821;13.710;100.604;2023-09-19T02:57:08;101171.47;;;35.98;48.37
76095;BME280;64821;13.710;100.604;2023-09-19T02:58:12;101174.72;;;36.01;48.52
76095;BME280;64821;13.710;100.604;2023-09-19T02:59:16;101179.09;;;36.02;48.53
76095;BME280;64821;13.710;100.604;2023-09-19T03:00:20;101171.97;;;36.01;48.73
76095;BME280;64821;13.710;100.604;2023-09-19T03:01:24;101171.63;;;36.02;48.40
76095;BME280;64821;13.710;100.604;2023-09-19T03:02:28;101168.06;;;36.02;48.16
76095;BME280;64821;13.710;100.604;2023-09-19T03:03:32;101170.34;;;36.00;48.15
76095;BME280;64821;13.710;100.604;2023-09-19T03:04:38;101179.28;;;35.96;47.35
76095;BME280;64821;13.710;100.604;2023-09-19T03:05:42;101175.38;;;35.97;48.37
76095;BME280;64821;13.710;100.604;2023-09-19T03:06:46;101176.50;;;35.96;48.72
76095;BME280;64821;13.710;100.604;2023-09-19T03:07:50;101163.28;;;35.90;48.12
76095;BME280;64821;13.710;100.604;2023-09-19T03:08:54;101170.06;;;35.92;48.26
76095;BME280;64821;13.710;100.604;2023-09-19T03:09:58;101172.13;;;35.95;48.18
76095;BME280;64821;13.710;100.604;2023-09-19T03:11:03;101173.44;;;35.98;48.34
76095;BME280;64821;13.710;100.604;2023-09-19T03:12:07;101176.34;;;36.02;48.29
76095;BME280;64821;13.710;100.604;2023-09-19T03:13:11;101172.44;;;36.03;48.06
76095;BME280;64821;13.710;100.604;2023-09-19T03:14:14;101175.53;;;36.01;48.18
76095;BME280;64821;13.710;100.604;2023-09-19T03:15:18;101175.19;;;36.03;48.06
76095;BME280;64821;13.710;100.604;2023-09-19T03:16:22;101164.00;;;35.99;47.80
76095;BME280;64821;13.710;100.604;2023-09-19T03:17:26;101168.16;;;36.05;47.67
76095;BME280;64821;13.710;100.604;2023-09-19T03:18:30;101171.75;;;36.06;47.67
76095;BME280;64821;13.710;100.604;2023-09-19T03:19:34;101163.22;;;35.98;47.60
76095;BME280;64821;13.710;100.604;2023-09-19T03:20:39;101170.28;;;36.08;46.30
76095;BME280;64821;13.710;100.604;2023-09-19T03:21:43;101168.78;;;36.11;47.48
76095;BME280;64821;13.710;100.604;2023-09-19T03:22:47;101158.56;;;36.11;47.21
76095;BME280;64821;13.710;100.604;2023-09-19T03:23:51;101165.16;;;36.19;47.26
76095;BME280;64821;13.710;100.604;2023-09-19T03:24:55;101165.66;;;36.21;47.03
76095;BME280;64821;13.710;100.604;2023-09-19T03:25:59;101165.66;;;36.21;47.19
76095;BME280;64821;13.710;100.604;2023-09-19T03:27:03;101157.53;;;36.16;47.04
76095;BME280;64821;13.710;100.604;2023-09-19T03:28:07;101162.72;;;36.17;47.07
76095;BME280;64821;13.710;100.604;2023-09-19T03:29:11;101161.91;;;36.17;47.21
76095;BME280;64821;13.710;100.604;2023-09-19T03:30:15;101153.97;;;36.15;47.24
76095;BME280;64821;13.710;100.604;2023-09-19T03:31:18;101155.13;;;36.14;47.29
76095;BME280;64821;13.710;100.604;2023-09-19T03:32:22;101160.31;;;36.16;47.14
76095;BME280;64821;13.710;100.604;2023-09-19T03:33:26;101166.16;;;36.14;46.81
76095;BME280;64821;13.710;100.604;2023-09-19T03:34:30;101162.41;;;36.19;46.84
76095;BME280;64821;13.710;100.604;2023-09-19T03:35:34;101153.53;;;36.13;46.51
76095;BME280;64821;13.710;100.604;2023-09-19T03:36:40;101161.44;;;36.23;45.40
76095;BME280;64821;13.710;100.604;2023-09-19T03:37:44;101155.81;;;36.32;46.26
76095;BME280;64821;13.710;100.604;2023-09-19T03:38:48;101162.75;;;36.38;46.34
76095;BME280;64821;13.710;100.604;2023-09-19T03:39:52;101161.38;;;36.44;46.07
76095;BME280;64821;13.710;100.604;2023-09-19T03:40:56;101170.25;;;36.50;45.90
76095;BME280;64821;13.710;100.604;2023-09-19T03:42:00;101160.50;;;36.52;45.89
76095;BME280;64821;13.710;100.604;2023-09-19T03:43:04;101164.19;;;36.56;45.62
76095;BME280;64821;13.710;100.604;2023-09-19T03:44:08;101160.50;;;36.64;45.29
76095;BME280;64821;13.710;100.604;2023-09-19T03:45:11;101157.09;;;36.67;45.53
76095;BME280;64821;13.710;100.604;2023-09-19T03:46:16;101149.78;;;36.72;44.26
76095;BME280;64821;13.710;100.604;2023-09-19T03:47:20;101155.06;;;36.77;44.00
76095;BME280;64821;13.710;100.604;2023-09-19T03:48:30;101159.78;;;36.76;45.03
76095;BME280;64821;13.710;100.604;2023-09-19T03:49:33;101157.63;;;36.82;44.84
76095;BME280;64821;13.710;100.604;2023-09-19T03:50:37;101157.03;;;36.88;44.94
76095;BME280;64821;13.710;100.604;2023-09-19T03:51:43;101148.53;;;36.93;43.40
76095;BME280;64821;13.710;100.604;2023-09-19T03:52:46;101157.88;;;37.01;44.64
76095;BME280;64821;13.710;100.604;2023-09-19T03:53:50;101150.84;;;37.03;44.63
76095;BME280;64821;13.710;100.604;2023-09-19T03:54:54;101143.16;;;37.09;44.04
76095;BME280;64821;13.710;100.604;2023-09-19T03:55:58;101139.25;;;37.10;44.29
76095;BME280;64821;13.710;100.604;2023-09-19T03:57:02;101141.56;;;37.20;43.94
76095;BME280;64821;13.710;100.604;2023-09-19T03:58:05;101136.97;;;37.24;43.85
76095;BME280;64821;13.710;100.604;2023-09-19T03:59:09;101117.59;;;37.12;43.80
76095;BME280;64821;13.710;100.604;2023-09-19T04:00:19;101145.50;;;37.19;39.28
76095;BME280;64821;13.710;100.604;2023-09-19T04:01:23;101147.63;;;37.14;44.19
76095;BME280;64821;13.710;100.604;2023-09-19T04:02:27;101130.63;;;37.12;44.21
76095;BME280;64821;13.710;100.604;2023-09-19T04:03:31;101149.97;;;37.24;43.80
76095;BME280;64821;13.710;100.604;2023-09-19T04:04:35;101148.59;;;37.30;43.67
76095;BME280;64821;13.710;100.604;2023-09-19T04:05:39;101140.06;;;37.35;43.82
76095;BME280;64821;13.710;100.604;2023-09-19T04:06:44;101147.66;;;37.38;43.15
76095;BME280;64821;13.710;100.604;2023-09-19T04:07:48;101127.41;;;37.34;43.52
76095;BME280;64821;13.710;100.604;2023-09-19T04:08:52;101148.34;;;37.47;43.55
76095;BME280;64821;13.710;100.604;2023-09-19T04:09:56;101145.72;;;37.51;42.85
76095;BME280;64821;13.710;100.604;2023-09-19T04:11:00;101137.28;;;37.47;43.36
76095;BME280;64821;13.710;100.604;2023-09-19T04:12:04;101104.94;;;37.23;43.09
76095;BME280;64821;13.710;100.604;2023-09-19T04:13:08;101139.72;;;37.36;43.15
76095;BME280;64821;13.710;100.604;2023-09-19T04:14:12;101138.09;;;37.35;43.14
76095;BME280;64821;13.710;100.604;2023-09-19T04:15:16;101142.03;;;37.34;43.11
76095;BME280;64821;13.710;100.604;2023-09-19T04:16:20;101144.31;;;37.32;43.53
76095;BME280;64821;13.710;100.604;2023-09-19T04:17:24;101142.72;;;37.31;43.17
76095;BME280;64821;13.710;100.604;2023-09-19T04:18:28;101140.06;;;37.35;43.26
76095;BME280;64821;13.710;100.604;2023-09-19T04:19:31;101135.69;;;37.34;42.94
76095;BME280;64821;13.710;100.604;2023-09-19T04:20:36;101140.41;;;37.46;42.88
76095;BME280;64821;13.710;100.604;2023-09-19T04:21:39;101144.53;;;37.52;42.78
76095;BME280;64821;13.710;100.604;2023-09-19T04:22:45;101141.09;;;37.42;41.24
76095;BME280;64821;13.710;100.604;2023-09-19T04:23:49;101140.19;;;37.38;42.99
76095;BME280;64821;13.710;100.604;2023-09-19T04:24:53;101127.66;;;37.29;42.78
76095;BME280;64821;13.710;100.604;2023-09-19T04:25:57;101141.94;;;37.31;42.27
76095;BME280;64821;13.710;100.604;2023-09-19T04:27:00;101131.56;;;37.28;43.50
76095;BME280;64821;13.710;100.604;2023-09-19T04:28:05;101130.53;;;37.20;42.91
76095;BME280;64821;13.710;100.604;2023-09-19T04:29:09;101126.13;;;37.07;43.39
76095;BME280;64821;13.710;100.604;2023-09-19T04:30:13;101135.47;;;37.15;42.50
76095;BME280;64821;13.710;100.604;2023-09-19T04:31:16;101135.75;;;37.13;43.39
76095;BME280;64821;13.710;100.604;2023-09-19T04:32:20;101132.56;;;37.11;43.50
76095;BME280;64821;13.710;100.604;2023-09-19T04:33:25;101134.06;;;37.09;43.08
76095;BME280;64821;13.710;100.604;2023-09-19T04:34:29;101134.88;;;37.09;43.46
76095;BME280;64821;13.710;100.604;2023-09-19T04:35:33;101126.56;;;37.09;43.30
76095;BME280;64821;13.710;100.604;2023-09-19T04:36:37;101128.06;;;37.06;43.23
76095;BME280;64821;13.710;100.604;2023-09-19T04:37:41;101119.66;;;37.03;43.09
76095;BME280;64821;13.710;100.604;2023-09-19T04:38:47;101124.03;;;37.04;42.13
76095;BME280;64821;13.710;100.604;2023-09-19T04:39:50;101095.69;;;36.83;43.52
76095;BME280;64821;13.710;100.604;2023-09-19T04:40:59;101117.69;;;37.03;40.47
76095;BME280;64821;13.710;100.604;2023-09-19T04:42:04;101121.72;;;37.06;43.03
76095;BME280;64821;13.710;100.604;2023-09-19T04:43:07;101120.34;;;37.12;42.94
76095;BME280;64821;13.710;100.604;2023-09-19T04:44:22;101109.75;;;37.14;41.01
76095;BME280;64821;13.710;100.604;2023-09-19T04:45:31;101116.94;;;37.15;42.87
76095;BME280;64821;13.710;100.604;2023-09-19T04:46:35;101118.75;;;37.11;42.67
76095;BME280;64821;13.710;100.604;2023-09-19T04:47:39;101124.28;;;37.11;42.97
76095;BME280;64821;13.710;100.604;2023-09-19T04:48:43;101117.25;;;37.14;42.91
76095;BME280;64821;13.710;100.604;2023-09-19T04:49:47;101099.16;;;37.04;42.82
76095;BME280;64821;13.710;100.604;2023-09-19T04:50:51;101116.25;;;37.18;42.97
76095;BME280;64821;13.710;100.604;2023-09-19T04:51:55;101115.56;;;37.21;43.04
76095;BME280;64821;13.710;100.604;2023-09-19T04:52:59;101112.91;;;37.25;42.46
76095;BME280;64821;13.710;100.604;2023-09-19T04:54:05;101105.88;;;37.27;40.55
76095;BME280;64821;13.710;100.604;2023-09-19T04:55:10;101085.63;;;37.23;41.87
76095;BME280;64821;13.710;100.604;2023-09-19T04:56:14;101097.59;;;37.39;42.12
76095;BME280;64821;13.710;100.604;2023-09-19T04:57:19;101093.63;;;37.53;41.65
76095;BME280;64821;13.710;100.604;2023-09-19T04:58:23;101098.34;;;37.64;42.15
76095;BME280;64821;13.710;100.604;2023-09-19T04:59:26;101078.53;;;37.62;41.37
76095;BME280;64821;13.710;100.604;2023-09-19T05:00:30;101089.22;;;37.76;41.74
76095;BME280;64821;13.710;100.604;2023-09-19T05:01:34;101085.19;;;37.73;41.09
76095;BME280;64821;13.710;100.604;2023-09-19T05:02:38;101087.88;;;37.70;41.78
76095;BME280;64821;13.710;100.604;2023-09-19T05:03:42;101082.22;;;37.66;41.61
76095;BME280;64821;13.710;100.604;2023-09-19T05:04:46;101086.16;;;37.65;41.91
76095;BME280;64821;13.710;100.604;2023-09-19T05:05:50;101084.06;;;37.62;41.89
76095;BME280;64821;13.710;100.604;2023-09-19T05:06:54;101083.63;;;37.60;42.00
76095;BME280;64821;13.710;100.604;2023-09-19T05:07:58;101076.47;;;37.59;41.97
76095;BME280;64821;13.710;100.604;2023-09-19T05:09:02;101089.59;;;37.62;41.79
76095;BME280;64821;13.710;100.604;2023-09-19T05:10:09;101088.09;;;37.65;40.71
76095;BME280;64821;13.710;100.604;2023-09-19T05:11:13;101088.91;;;37.65;41.64
76095;BME280;64821;13.710;100.604;2023-09-19T05:12:17;101078.66;;;37.54;42.04
76095;BME280;64821;13.710;100.604;2023-09-19T05:13:20;101085.91;;;37.58;41.46
76095;BME280;64821;13.710;100.604;2023-09-19T05:14:24;101082.22;;;37.54;41.82
76095;BME280;64821;13.710;100.604;2023-09-19T05:15:28;101077.75;;;37.50;42.04
76095;BME280;64821;13.710;100.604;2023-09-19T05:16:32;101075.69;;;37.47;41.75
76095;BME280;64821;13.710;100.604;2023-09-19T05:17:36;101061.88;;;37.34;42.24
76095;BME280;64821;13.710;100.604;2023-09-19T05:18:39;101071.66;;;37.32;42.31
76095;BME280;64821;13.710;100.604;2023-09-19T05:19:43;101071.91;;;37.27;42.22
76095;BME280;64821;13.710;100.604;2023-09-19T05:20:47;101058.22;;;37.18;42.05
76095;BME280;64821;13.710;100.604;2023-09-19T05:21:51;101061.09;;;37.22;42.11
76095;BME280;64821;13.710;100.604;2023-09-19T05:22:59;101067.06;;;37.24;40.44
76095;BME280;64821;13.710;100.604;2023-09-19T05:24:03;101063.63;;;37.27;41.95
76095;BME280;64821;13.710;100.604;2023-09-19T05:25:09;101064.44;;;37.27;40.42
76095;BME280;64821;13.710;100.604;2023-09-19T05:26:13;101060.88;;;37.27;41.94
76095;BME280;64821;13.710;100.604;2023-09-19T05:27:17;101057.97;;;37.23;41.68
76095;BME280;64821;13.710;100.604;2023-09-19T05:28:20;101062.47;;;37.28;42.30
76095;BME280;64821;13.710;100.604;2023-09-19T05:29:24;101049.34;;;37.25;42.03
76095;BME280;64821;13.710;100.604;2023-09-19T05:30:28;101048.09;;;37.22;42.03
76095;BME280;64821;13.710;100.604;2023-09-19T05:31:40;101054.66;;;37.30;40.19
76095;BME280;64821;13.710;100.604;2023-09-19T05:32:44;101052.31;;;37.32;41.81
76095;BME280;64821;13.710;100.604;2023-09-19T05:33:48;101040.25;;;37.24;41.99
76095;BME280;64821;13.710;100.604;2023-09-19T05:34:52;101046.03;;;37.31;41.70
76095;BME280;64821;13.710;100.604;2023-09-19T05:35:55;101047.59;;;37.32;41.80
76095;BME280;64821;13.710;100.604;2023-09-19T05:36:59;101046.44;;;37.33;41.61
76095;BME280;64821;13.710;100.604;2023-09-19T05:38:03;101043.69;;;37.33;41.45
76095;BME280;64821;13.710;100.604;2023-09-19T05:39:07;101033.69;;;37.29;41.48
76095;BME280;64821;13.710;100.604;2023-09-19T05:40:15;101038.88;;;37.30;40.72
76095;BME280;64821;13.710;100.604;2023-09-19T05:41:19;101034.16;;;37.31;41.73
76095;BME280;64821;13.710;100.604;2023-09-19T05:42:23;101035.75;;;37.32;41.69
76095;BME280;64821;13.710;100.604;2023-09-19T05:43:26;101010.00;;;37.16;41.74
76095;BME280;64821;13.710;100.604;2023-09-19T05:44:30;101034.59;;;37.33;41.75
76095;BME280;64821;13.710;100.604;2023-09-19T05:45:34;100969.41;;;36.92;41.54
76095;BME280;64821;13.710;100.604;2023-09-19T05:46:38;101026.69;;;37.31;41.54
76095;BME280;64821;13.710;100.604;2023-09-19T05:47:42;101029.22;;;37.24;42.04
76095;BME280;64821;13.710;100.604;2023-09-19T05:48:47;101028.25;;;37.32;41.46
76095;BME280;64821;13.710;100.604;2023-09-19T05:49:51;101023.53;;;37.33;41.93
76095;BME280;64821;13.710;100.604;2023-09-19T05:50:54;101023.53;;;37.33;41.80
76095;BME280;64821;13.710;100.604;2023-09-19T05:51:58;101023.53;;;37.33;41.86
76095;BME280;64821;13.710;100.604;2023-09-19T05:53:02;100982.03;;;37.05;41.67
76095;BME280;64821;13.710;100.604;2023-09-19T05:54:06;101026.56;;;37.28;41.25
76095;BME280;64821;13.710;100.604;2023-09-19T05:55:10;101020.22;;;37.27;41.70
76095;BME280;64821;13.710;100.604;2023-09-19T05:56:15;101009.19;;;37.15;40.02
76095;BME280;64821;13.710;100.604;2023-09-19T05:57:19;101016.53;;;37.23;41.78
76095;BME280;64821;13.710;100.604;2023-09-19T05:58:26;101022.53;;;37.25;41.31
76095;BME280;64821;13.710;100.604;2023-09-19T05:59:30;101020.91;;;37.24;41.66